Time;durP1;ratioP1;P1;durP2;ratioP2;P2;SDS_P1;SDS_P2;PMS_P1;PMS_P2;Temp;Humidity;BMP_temperature;BMP_pressure;BME280_temperature;BME280_humidity;BME280_pressure;Samples;Min_cycle;Max_cycle;Signal;HPM_P1;HPM_P2
2023/07/10 00:00:04;;;;;;;4.70;3.30;;;;;;;17.79;63.83;99548.83;105471;1270;59167;-83
2023/07/10 00:02:38;;;;;;;3.60;3.30;;;;;;;17.77;63.79;99552.09;105986;1264;60172;-82
2023/07/10 00:05:12;;;;;;;7.10;3.40;;;;;;;17.73;63.90;99559.22;105457;1269;70937;-83
2023/07/10 00:07:41;;;;;;;5.30;3.20;;;;;;;17.70;64.02;99563.66;105779;1265;70347;-85
2023/07/10 00:10:13;;;;;;;4.30;3.30;;;;;;;17.66;64.18;99563.28;107090;1264;191483;-82
2023/07/10 00:12:41;;;;;;;4.20;3.20;;;;;;;17.63;64.42;99561.73;107979;1263;58919;-79
2023/07/10 00:15:20;;;;;;;5.10;3.10;;;;;;;17.61;64.46;99561.66;106757;1263;59339;-83
2023/07/10 00:17:50;;;;;;;4.00;3.70;;;;;;;17.59;64.62;99562.52;105657;1269;70837;-84
2023/07/10 00:20:22;;;;;;;4.50;3.60;;;;;;;17.56;64.81;99563.06;106187;1263;69180;-83
2023/07/10 00:22:50;;;;;;;4.30;3.50;;;;;;;17.53;64.85;99561.56;108559;1259;72599;-83
2023/07/10 00:25:18;;;;;;;4.80;3.20;;;;;;;17.50;64.92;99555.72;108406;1260;59247;-83
2023/07/10 00:27:48;;;;;;;5.50;3.60;;;;;;;17.48;64.93;99556.14;106041;1260;60007;-82
2023/07/10 00:30:20;;;;;;;4.40;3.50;;;;;;;17.46;64.89;99555.91;106868;1260;73094;-84
2023/07/10 00:32:52;;;;;;;12.00;4.10;;;;;;;17.44;65.07;99556.20;107685;1264;69211;-85
2023/07/10 00:35:24;;;;;;;4.70;3.30;;;;;;;17.42;65.36;99562.14;107333;1259;72763;-86
2023/07/10 00:38:02;;;;;;;8.00;3.90;;;;;;;17.40;65.59;99561.36;107416;1260;59654;-86
2023/07/10 00:40:33;;;;;;;5.50;3.20;;;;;;;17.39;65.92;99561.95;106312;1261;60276;-87
2023/07/10 00:43:29;;;;;;;5.00;3.80;;;;;;;17.38;65.98;99563.85;107296;1261;73052;-83
2023/07/10 00:45:58;;;;;;;4.10;3.50;;;;;;;17.36;65.97;99563.05;106690;1263;69866;-81
2023/07/10 00:48:36;;;;;;;4.30;3.80;;;;;;;17.34;65.80;99562.33;107102;1262;71452;-80
2023/07/10 00:51:11;;;;;;;6.10;3.30;;;;;;;17.30;66.12;99566.77;108452;1256;59609;-84
2023/07/10 00:53:39;;;;;;;4.30;3.60;;;;;;;17.27;66.28;99566.27;109292;1256;58725;-84
2023/07/10 00:56:06;;;;;;;6.10;4.00;;;;;;;17.35;66.13;99566.45;109168;1256;72003;-84
2023/07/10 00:58:38;;;;;;;3.90;3.30;;;;;;;17.42;65.98;99566.42;109299;1257;71526;-86
2023/07/10 01:01:08;;;;;;;6.00;3.40;;;;;;;17.42;66.02;99571.47;109157;1256;71605;-82
2023/07/10 01:03:37;;;;;;;4.70;3.40;;;;;;;17.39;66.22;99571.86;109172;1256;58848;-82
2023/07/10 01:06:23;;;;;;;7.20;3.90;;;;;;;17.38;66.17;99570.05;109161;1256;58507;-85
2023/07/10 01:09:03;;;;;;;3.90;3.10;;;;;;;17.37;66.14;99573.08;109333;1256;74028;-85
2023/07/10 01:11:34;;;;;;;5.30;3.40;;;;;;;17.36;66.23;99572.50;109165;1256;68888;-88
2023/07/10 01:14:05;;;;;;;4.60;3.40;;;;;;;17.35;66.24;99576.27;109297;1256;71571;-85
2023/07/10 01:16:35;;;;;;;9.60;4.20;;;;;;;17.33;66.31;99575.84;109113;1256;58825;-84
2023/07/10 01:19:05;;;;;;;4.10;3.60;;;;;;;17.31;66.36;99574.31;109144;1256;58756;-83
2023/07/10 01:21:37;;;;;;;4.50;3.60;;;;;;;17.28;66.35;99576.85;109184;1256;71739;-82
2023/07/10 01:24:05;;;;;;;5.00;3.40;;;;;;;17.25;66.42;99579.80;109221;1256;69342;-84
2023/07/10 01:26:36;;;;;;;4.90;3.80;;;;;;;17.22;66.37;99583.36;109345;1257;71375;-84
2023/07/10 01:29:11;;;;;;;4.40;3.70;;;;;;;17.19;66.51;99584.63;109231;1256;59344;-83
2023/07/10 01:31:39;;;;;;;4.40;3.90;;;;;;;17.15;66.79;99578.41;109153;1256;58841;-82
2023/07/10 01:34:06;;;;;;;6.20;4.40;;;;;;;17.10;66.88;99577.69;109083;1256;72121;-84
2023/07/10 01:36:36;;;;;;;4.30;3.80;;;;;;;17.08;67.01;99579.52;109031;1256;68754;-81
2023/07/10 01:39:27;;;;;;;4.50;3.50;;;;;;;17.05;67.08;99577.67;109176;1256;71660;-83
2023/07/10 01:41:54;;;;;;;5.10;3.70;;;;;;;17.03;67.18;99584.67;108879;1255;58272;-84
2023/07/10 01:44:29;;;;;;;4.20;3.50;;;;;;;16.99;67.31;99583.13;107961;1256;59682;-83
2023/07/10 01:46:57;;;;;;;4.40;3.40;;;;;;;16.96;67.49;99585.06;109023;1256;71983;-81
2023/07/10 01:49:52;;;;;;;5.00;3.60;;;;;;;16.94;67.56;99588.05;108843;1256;69043;-84
2023/07/10 01:53:20;;;;;;;4.50;3.60;;;;;;;17.05;67.64;99587.91;105971;1291;599488;-86
2023/07/10 01:55:48;;;;;;;6.00;3.80;;;;;;;17.03;67.73;99591.80;108632;1267;58791;-89
2023/07/10 01:58:15;;;;;;;5.70;3.80;;;;;;;17.02;67.93;99589.98;109000;1259;58751;-85
2023/07/10 02:00:43;;;;;;;5.80;3.50;;;;;;;17.02;68.06;99589.38;108490;1259;71159;-84
2023/07/10 02:03:11;;;;;;;6.20;4.20;;;;;;;17.01;68.25;99593.17;108656;1259;69075;-83
2023/07/10 02:05:39;;;;;;;4.00;3.70;;;;;;;16.99;68.25;99598.48;109108;1256;71514;-84
2023/07/10 02:08:06;;;;;;;9.00;4.20;;;;;;;16.95;68.32;99596.14;109222;1253;168588;-82
2023/07/10 02:10:34;;;;;;;6.90;3.90;;;;;;;16.89;68.18;99600.29;109313;1253;58797;-82
2023/07/10 02:13:16;;;;;;;4.40;3.60;;;;;;;16.81;68.63;99602.56;109211;1253;70674;-83
2023/07/10 02:15:43;;;;;;;6.40;3.80;;;;;;;16.75;69.04;99607.87;109398;1254;71367;-84
2023/07/10 02:18:11;;;;;;;5.90;4.00;;;;;;;16.68;69.10;99610.12;109504;1254;71373;-82
2023/07/10 02:21:50;;;;;;;6.00;3.90;;;;;;;16.67;69.42;99613.34;106736;1285;599761;-84
2023/07/10 02:24:18;;;;;;;4.60;4.00;;;;;;;16.74;69.53;99613.37;108739;1266;61125;-85
2023/07/10 02:26:45;;;;;;;4.70;4.00;;;;;;;16.75;69.67;99610.63;108749;1266;58317;-84
2023/07/10 02:29:13;;;;;;;6.10;3.90;;;;;;;16.73;69.85;99614.71;108655;1266;69980;-83
2023/07/10 02:31:40;;;;;;;4.80;4.30;;;;;;;16.71;69.83;99616.41;108222;1266;68825;-83
2023/07/10 02:34:08;;;;;;;6.40;3.90;;;;;;;16.67;69.96;99618.05;108374;1266;73587;-83
2023/07/10 02:36:36;;;;;;;5.20;4.30;;;;;;;16.62;69.91;99615.98;108396;1265;207541;-83
2023/07/10 02:39:03;;;;;;;4.40;3.90;;;;;;;16.59;70.13;99621.25;108046;1265;59264;-82
2023/07/10 02:41:31;;;;;;;5.70;4.40;;;;;;;16.58;70.28;99615.92;107848;1264;73121;-80
2023/07/10 02:44:01;;;;;;;7.50;4.40;;;;;;;16.58;70.39;99622.14;108040;1269;68982;-83
2023/07/10 02:46:29;;;;;;;4.70;3.60;;;;;;;16.67;70.17;99620.48;105984;1264;71369;-83
2023/07/10 02:48:57;;;;;;;4.90;4.30;;;;;;;16.74;70.10;99630.11;106263;1266;60127;-86
2023/07/10 02:51:24;;;;;;;4.10;3.80;;;;;;;16.73;70.33;99634.73;107264;1265;59745;-83
2023/07/10 02:53:53;;;;;;;5.20;4.10;;;;;;;16.71;70.27;99633.56;108390;1262;72633;-85
2023/07/10 12:15:10;;;;;;;2.70;2.50;;;;;;;28.25;44.10;99456.16;102747;1294;600201;-79
2023/07/10 12:17:39;;;;;;;3.30;2.60;;;;;;;29.24;42.49;99455.71;105917;1257;59186;-77
2023/07/10 12:20:22;;;;;;;2.50;2.20;;;;;;;30.25;41.23;99453.70;105683;1257;61032;-78
2023/07/10 12:22:51;;;;;;;;;;;;;;;31.46;39.09;99451.61;105925;1257;70913;-79
2023/07/10 12:25:18;;;;;;;2.90;2.50;;;;;;;32.02;38.16;99443.74;106142;1254;70288;-77
2023/07/10 12:27:49;;;;;;;3.30;2.40;;;;;;;32.22;38.29;99438.89;107623;1253;208700;-79
2023/07/10 12:30:25;;;;;;;4.20;2.40;;;;;;;32.44;38.02;99436.25;108651;1253;58774;-78
2023/07/10 12:32:55;;;;;;;4.90;2.20;;;;;;;32.45;36.97;99437.80;108044;1254;60571;-76
2023/07/10 12:35:34;;;;;;;5.40;2.00;;;;;;;32.25;35.75;99434.73;106362;1254;71362;-76
2023/07/10 12:38:03;;;;;;;2.40;2.20;;;;;;;32.08;34.08;99431.75;105891;1254;70487;-76
2023/07/10 12:40:30;;;;;;;5.40;2.20;;;;;;;31.95;33.55;99426.20;105803;1254;75216;-77
2023/07/10 12:43:21;;;;;;;2.30;2.10;;;;;;;31.79;33.61;99420.25;105774;1261;59735;-76
2023/07/10 12:45:59;;;;;;;3.30;2.30;;;;;;;31.62;33.89;99416.52;105858;1254;59716;-74
2023/07/10 12:48:29;;;;;;;2.50;2.30;;;;;;;31.60;34.35;99411.77;105923;1258;73366;-78
2023/07/10 12:51:02;;;;;;;2.40;2.20;;;;;;;31.75;34.45;99408.45;105852;1255;72797;-76
2023/07/10 12:53:38;;;;;;;3.30;2.30;;;;;;;31.91;34.38;99405.21;106131;1254;71405;-77
2023/07/10 12:56:26;;;;;;;2.30;2.10;;;;;;;31.87;34.47;99405.26;106026;1259;59708;-76
2023/07/10 12:58:54;;;;;;;2.40;2.20;;;;;;;31.48;34.76;99398.85;108279;1254;60277;-77
2023/07/10 13:01:29;;;;;;;2.80;2.60;;;;;;;31.07;35.46;99396.41;108707;1254;71785;-76
2023/07/10 13:04:20;;;;;;;4.70;2.30;;;;;;;30.65;35.67;99394.48;107426;1254;70072;-77
2023/07/10 13:07:01;;;;;;;2.70;2.30;;;;;;;30.08;36.17;99397.82;105954;1260;71394;-76
2023/07/10 13:09:53;;;;;;;2.50;2.30;;;;;;;29.37;37.47;99415.73;106366;1256;59641;-74
2023/07/10 13:12:30;;;;;;;2.80;2.50;;;;;;;28.83;41.08;99431.23;105851;1254;61177;-73
2023/07/10 13:15:01;;;;;;;2.90;2.60;;;;;;;27.88;44.12;99424.37;106053;1257;73157;-75
2023/07/10 13:17:30;;;;;;;2.50;2.20;;;;;;;26.73;45.81;99429.92;105884;1254;70703;-75
2023/07/10 13:19:58;;;;;;;4.00;2.40;;;;;;;25.80;47.17;99428.80;105795;1254;72908;-73
2023/07/10 13:22:37;;;;;;;3.60;2.30;;;;;;;25.27;48.25;99426.01;105580;1260;59676;-73
2023/07/10 13:25:06;;;;;;;4.20;2.40;;;;;;;25.08;48.64;99426.97;105410;1258;59542;-75
2023/07/10 13:27:34;;;;;;;2.90;2.30;;;;;;;24.96;48.37;99436.27;108094;1254;73099;-74
2023/07/10 13:30:02;;;;;;;2.70;2.20;;;;;;;24.85;48.24;99435.38;108494;1254;70390;-74
2023/07/10 13:32:30;;;;;;;2.90;2.70;;;;;;;24.83;47.95;99434.23;106633;1254;75340;-74
2023/07/10 13:34:57;;;;;;;4.80;2.40;;;;;;;24.86;47.61;99428.69;105630;1261;60115;-77
2023/07/10 13:37:25;;;;;;;5.90;2.60;;;;;;;24.83;47.18;99433.52;105719;1261;60034;-72
2023/07/10 13:39:52;;;;;;;3.00;2.70;;;;;;;24.79;47.19;99434.55;105927;1259;73070;-75
2023/07/10 13:42:20;;;;;;;4.30;2.60;;;;;;;24.83;46.92;99436.13;106056;1254;70434;-73
2023/07/10 13:44:48;;;;;;;4.20;2.60;;;;;;;24.82;47.03;99432.76;105973;1259;71397;-73
2023/07/10 13:47:17;;;;;;;4.60;2.50;;;;;;;24.81;47.30;99426.63;105991;1257;60143;-74
2023/07/10 13:49:44;;;;;;;4.10;2.30;;;;;;;24.88;47.34;99425.48;105795;1254;60527;-75
2023/07/10 13:52:19;;;;;;;3.20;2.90;;;;;;;24.98;47.68;99416.69;106009;1254;73190;-72
2023/07/10 13:54:47;;;;;;;4.10;2.80;;;;;;;25.06;48.12;99411.46;106214;1254;70131;-73
2023/07/10 13:57:26;;;;;;;3.50;2.60;;;;;;;25.23;48.60;99415.46;107802;1253;72982;-74
2023/07/10 13:59:58;;;;;;;3.20;2.80;;;;;;;25.46;47.63;99412.13;107819;1259;59717;-76
2023/07/10 14:02:34;;;;;;;3.10;2.80;;;;;;;25.65;47.06;99406.70;106325;1258;59535;-75
2023/07/10 14:05:07;;;;;;;2.70;2.50;;;;;;;25.83;46.46;99410.50;106073;1254;71993;-72
2023/07/10 14:07:35;;;;;;;2.50;2.30;;;;;;;26.06;45.50;99407.30;106253;1254;71304;-73
2023/07/10 14:10:04;;;;;;;3.90;2.10;;;;;;;26.22;45.06;99405.44;105896;1254;71465;-74
2023/07/10 14:12:32;;;;;;;2.60;2.40;;;;;;;26.34;44.95;99404.77;106126;1253;60436;-72
2023/07/10 14:15:04;;;;;;;2.60;2.40;;;;;;;26.41;44.45;99405.60;105888;1253;59708;-72
2023/07/10 14:17:33;;;;;;;3.10;2.40;;;;;;;26.45;43.67;99399.48;106209;1253;74882;-72
2023/07/10 14:20:01;;;;;;;2.50;2.30;;;;;;;26.57;43.36;99403.56;106165;1258;68868;-74
2023/07/10 14:22:28;;;;;;;3.40;2.60;;;;;;;26.70;43.25;99406.59;105834;1254;72785;-72
2023/07/10 14:24:56;;;;;;;2.50;2.30;;;;;;;26.81;42.65;99411.76;105789;1260;59740;-71
2023/07/10 14:27:26;;;;;;;2.50;2.10;;;;;;;26.92;42.63;99413.81;108932;1254;58840;-74
2023/07/10 14:29:55;;;;;;;4.90;3.20;;;;;;;26.95;42.63;99412.70;106608;1257;72663;-74
2023/07/10 14:32:25;;;;;;;2.40;2.20;;;;;;;26.99;43.08;99408.95;105991;1258;68661;-72
2023/07/10 14:34:52;;;;;;;2.20;2.00;;;;;;;26.99;42.36;99407.81;105973;1261;72665;-73
2023/07/10 14:37:22;;;;;;;2.60;2.40;;;;;;;26.98;41.91;99407.85;106150;1254;59751;-76
2023/07/10 14:39:49;;;;;;;3.10;2.40;;;;;;;26.96;41.97;99408.09;106095;1254;59646;-72
2023/07/10 14:42:23;;;;;;;2.60;2.20;;;;;;;26.94;41.54;99413.89;106025;1253;72031;-74
2023/07/10 14:44:50;;;;;;;2.80;2.20;;;;;;;26.94;41.52;99416.63;105905;1260;70596;-73
2023/07/10 14:47:18;;;;;;;2.30;2.10;;;;;;;26.89;41.53;99418.07;105862;1260;72448;-70
2023/07/10 14:49:46;;;;;;;3.40;2.80;;;;;;;26.86;41.11;99424.58;105541;1258;59611;-72
2023/07/10 14:52:18;;;;;;;5.00;3.10;;;;;;;26.83;40.73;99425.80;106427;1254;60000;-76
2023/07/10 14:54:53;;;;;;;4.30;3.90;;;;;;;26.76;41.00;99420.89;107569;1259;71830;-71
2023/07/10 14:57:33;;;;;;;5.30;4.80;;;;;;;26.68;40.58;99424.87;107487;1253;71044;-73
2023/07/10 15:00:08;;;;;;;5.20;4.70;;;;;;;26.62;40.12;99424.80;106088;1253;71378;-73
2023/07/10 15:02:36;;;;;;;4.60;3.50;;;;;;;26.54;40.06;99424.48;105972;1253;60490;-72
2023/07/10 15:05:03;;;;;;;4.50;2.30;;;;;;;26.47;39.92;99417.39;105962;1253;59746;-73
2023/07/10 15:07:31;;;;;;;4.20;2.50;;;;;;;26.42;39.58;99415.77;105952;1254;72085;-73
2023/07/10 15:10:22;;;;;;;2.50;2.20;;;;;;;26.32;39.33;99420.67;105752;1259;69055;-74
2023/07/10 15:12:55;;;;;;;2.30;2.00;;;;;;;26.19;39.44;99422.16;105889;1254;72778;-75
2023/07/10 15:15:22;;;;;;;4.30;2.20;;;;;;;26.07;39.46;99425.48;105925;1257;60243;-75
2023/07/10 15:17:50;;;;;;;6.80;2.40;;;;;;;26.02;39.82;99421.89;105908;1258;59675;-73
2023/07/10 15:20:19;;;;;;;4.20;2.50;;;;;;;25.93;39.84;99421.11;106151;1259;73239;-73
2023/07/10 15:22:47;;;;;;;4.30;2.30;;;;;;;25.85;40.14;99423.46;108244;1253;70325;-75
2023/07/10 15:25:16;;;;;;;4.50;2.30;;;;;;;25.77;40.23;99427.40;108513;1254;71402;-76
2023/07/10 15:27:44;;;;;;;2.50;2.00;;;;;;;25.70;40.58;99426.38;106769;1253;59701;-73
2023/07/10 15:30:11;;;;;;;2.30;2.20;;;;;;;25.64;40.93;99430.15;106222;1254;59740;-74
2023/07/10 15:32:43;;;;;;;3.80;2.20;;;;;;;25.60;41.18;99428.15;106751;1253;71947;-73
2023/07/10 15:35:13;;;;;;;2.30;2.20;;;;;;;25.60;41.57;99429.34;106096;1253;70002;-73
2023/07/10 15:37:40;;;;;;;3.40;2.40;;;;;;;25.66;41.64;99424.70;105706;1254;70711;-73
2023/07/10 15:40:18;;;;;;;4.20;2.20;;;;;;;25.70;41.91;99423.33;105670;1254;60134;-74
2023/07/10 15:42:48;;;;;;;2.90;2.00;;;;;;;25.66;42.04;99425.02;105829;1253;60008;-72
2023/07/10 15:45:17;;;;;;;2.60;2.30;;;;;;;25.58;42.37;99429.61;106033;1253;73065;-74
2023/07/10 15:47:46;;;;;;;2.50;2.30;;;;;;;25.52;42.66;99426.96;105956;1253;70310;-75
2023/07/10 15:50:14;;;;;;;4.20;2.50;;;;;;;25.48;42.81;99423.01;106140;1258;71113;-71
2023/07/10 15:52:47;;;;;;;2.60;2.10;;;;;;;25.44;43.01;99430.45;108977;1253;59260;-73
2023/07/10 15:55:31;;;;;;;3.30;2.10;;;;;;;25.40;43.30;99433.62;106737;1254;59464;-74
2023/07/10 15:58:00;;;;;;;2.90;2.10;;;;;;;25.37;43.36;99435.20;105744;1253;72034;-74
2023/07/10 16:00:36;;;;;;;2.50;2.30;;;;;;;25.33;43.58;99433.45;105897;1253;70225;-73
2023/07/10 16:03:12;;;;;;;3.50;2.70;;;;;;;25.33;43.91;99432.37;105769;1259;72842;-73
2023/07/10 16:05:40;;;;;;;3.00;2.30;;;;;;;25.32;44.12;99433.02;105883;1253;60034;-74
2023/07/10 16:08:15;;;;;;;3.40;2.90;;;;;;;25.28;44.10;99429.23;105861;1253;60213;-71
2023/07/10 16:10:47;;;;;;;2.60;2.20;;;;;;;25.18;44.13;99421.27;105865;1258;73367;-73
2023/07/10 16:13:18;;;;;;;3.00;2.40;;;;;;;25.02;44.30;99423.16;105978;1254;68934;-73
2023/07/10 16:15:46;;;;;;;4.40;2.70;;;;;;;24.82;44.65;99424.29;105944;1254;72544;-73
2023/07/10 16:18:28;;;;;;;3.70;2.50;;;;;;;24.63;44.90;99420.83;106299;1253;60210;-72
2023/07/10 16:20:57;;;;;;;5.20;2.80;;;;;;;24.48;45.35;99418.82;108364;1255;58837;-73
2023/07/10 16:23:29;;;;;;;2.80;2.40;;;;;;;24.35;45.65;99421.23;106850;1257;71896;-72
2023/07/10 16:26:00;;;;;;;3.30;2.90;;;;;;;24.19;45.96;99418.45;105640;1252;70213;-73
2023/07/10 16:28:28;;;;;;;2.60;2.40;;;;;;;24.06;46.31;99415.91;105743;1261;72719;-74
2023/07/10 16:30:55;;;;;;;4.70;2.20;;;;;;;23.93;46.49;99417.31;105837;1254;60545;-73
2023/07/10 16:33:26;;;;;;;4.10;2.50;;;;;;;23.80;47.04;99420.70;106032;1253;60435;-73
2023/07/10 16:35:53;;;;;;;3.00;2.30;;;;;;;23.69;47.50;99425.08;105891;1258;73685;-75
2023/07/10 16:38:21;;;;;;;2.80;2.40;;;;;;;23.58;47.35;99426.48;106071;1254;69145;-72
2023/07/10 16:40:51;;;;;;;2.30;2.10;;;;;;;23.43;47.61;99426.59;106148;1253;72716;-72
2023/07/10 16:43:32;;;;;;;3.40;2.30;;;;;;;23.28;47.89;99423.89;106004;1254;60552;-73
2023/07/10 16:46:00;;;;;;;2.50;2.20;;;;;;;23.15;48.21;99420.42;106069;1253;60569;-72
2023/07/10 16:48:28;;;;;;;2.90;2.60;;;;;;;23.07;48.32;99422.67;107662;1254;73978;-74
2023/07/10 16:50:58;;;;;;;2.60;2.40;;;;;;;22.99;48.34;99420.96;106470;1253;69261;-73
2023/07/10 16:53:42;;;;;;;2.30;2.10;;;;;;;22.92;48.59;99421.12;105872;1259;71813;-73
2023/07/10 16:56:11;;;;;;;3.20;2.60;;;;;;;22.86;48.45;99426.80;105882;1253;60485;-70
2023/07/10 16:58:38;;;;;;;5.90;2.40;;;;;;;22.78;48.64;99426.13;105680;1257;60415;-72
2023/07/10 17:01:26;;;;;;;3.70;2.40;;;;;;;22.69;49.26;99423.17;105824;1254;73857;-73
2023/07/10 17:03:55;;;;;;;2.60;2.30;;;;;;;22.60;49.32;99420.96;106040;1253;69553;-72
2023/07/10 17:06:26;;;;;;;4.80;2.50;;;;;;;22.54;49.14;99419.35;105900;1254;72780;-71
2023/07/10 17:08:54;;;;;;;3.40;2.30;;;;;;;22.49;48.90;99424.21;105889;1254;60457;-72
2023/07/10 17:11:34;;;;;;;2.40;2.10;;;;;;;22.43;48.82;99422.20;105523;1253;60536;-72
2023/07/10 17:14:02;;;;;;;4.00;2.30;;;;;;;22.36;48.87;99425.21;105826;1253;73865;-69
2023/07/10 17:16:29;;;;;;;3.50;2.10;;;;;;;22.31;48.84;99426.23;107967;1253;70420;-73
2023/07/10 17:18:57;;;;;;;3.60;2.10;;;;;;;22.27;48.39;99424.67;106637;1254;71648;-73
2023/07/10 17:21:24;;;;;;;2.00;1.80;;;;;;;22.22;48.30;99430.86;105993;1259;60441;-74
2023/07/10 17:23:52;;;;;;;2.40;2.20;;;;;;;22.15;48.29;99434.13;105632;1253;60636;-75
2023/07/10 17:26:20;;;;;;;4.20;2.30;;;;;;;22.08;48.34;99434.41;105767;1253;73844;-71
2023/07/10 17:28:48;;;;;;;3.90;1.70;;;;;;;22.01;48.54;99433.09;105589;1258;69588;-74
2023/07/10 17:31:24;;;;;;;2.10;1.90;;;;;;;21.96;48.65;99435.73;105861;1253;72712;-72
2023/07/10 17:33:56;;;;;;;2.00;1.80;;;;;;;21.91;48.39;99442.41;105779;1254;62131;-73
2023/07/10 17:36:24;;;;;;;3.30;3.00;;;;;;;21.87;48.30;99445.39;105883;1257;60415;-72
2023/07/10 17:38:51;;;;;;;2.60;2.30;;;;;;;21.81;48.40;99446.61;105864;1253;72645;-71
2023/07/10 17:41:21;;;;;;;1.80;1.70;;;;;;;21.76;48.31;99451.79;105830;1258;68805;-72
2023/07/10 17:43:59;;;;;;;4.50;2.00;;;;;;;21.70;48.29;99456.85;106666;1253;72879;-72
2023/07/10 17:46:30;;;;;;;2.40;2.20;;;;;;;21.66;48.32;99463.95;107797;1256;59545;-73
2023/07/10 17:48:58;;;;;;;2.30;2.10;;;;;;;21.60;48.04;99467.13;105966;1253;60329;-74
2023/07/10 17:51:31;;;;;;;2.80;2.10;;;;;;;21.55;48.10;99470.29;105850;1253;72811;-73
2023/07/10 17:53:59;;;;;;;3.60;1.80;;;;;;;21.49;48.36;99468.25;105740;1252;70330;-73
2023/07/10 17:56:27;;;;;;;3.70;2.40;;;;;;;21.44;48.68;99470.61;105586;1253;71559;-73
2023/07/10 17:58:54;;;;;;;2.30;2.10;;;;;;;21.39;49.12;99472.81;105790;1256;60538;-73
2023/07/10 18:01:25;;;;;;;3.80;2.10;;;;;;;21.33;50.06;99474.46;105902;1258;60438;-73
2023/07/10 18:03:57;;;;;;;3.60;2.50;;;;;;;21.26;51.10;99474.92;105536;1254;73195;-72
2023/07/10 18:06:24;;;;;;;3.70;2.40;;;;;;;21.18;51.82;99478.86;105350;1258;70482;-70
2023/07/10 18:08:52;;;;;;;2.40;2.20;;;;;;;21.11;52.26;99482.67;105326;1254;71072;-70
2023/07/10 18:11:29;;;;;;;3.10;2.30;;;;;;;21.04;52.54;99485.85;106136;1256;60427;-72
2023/07/10 18:13:57;;;;;;;4.30;2.60;;;;;;;20.97;52.95;99492.27;108940;1253;59052;-73
2023/07/10 18:16:25;;;;;;;3.90;2.30;;;;;;;20.91;53.15;99495.18;107783;1258;72575;-73
2023/07/10 18:18:53;;;;;;;5.20;2.80;;;;;;;20.88;53.33;99496.25;105999;1254;70247;-73
2023/07/10 18:21:28;;;;;;;5.80;2.70;;;;;;;20.84;53.50;99497.78;105916;1254;70933;-73
2023/07/10 18:23:57;;;;;;;5.00;2.20;;;;;;;20.79;53.63;99497.39;105356;1260;60416;-73
2023/07/10 18:26:27;;;;;;;3.50;2.30;;;;;;;20.76;53.66;99503.81;105581;1253;60444;-72
2023/07/10 18:28:56;;;;;;;4.40;2.40;;;;;;;20.73;53.76;99499.70;105652;1256;73880;-71
2023/07/10 18:31:25;;;;;;;2.60;2.20;;;;;;;20.69;53.65;99501.23;105433;1253;69977;-74
2023/07/10 18:33:56;;;;;;;4.80;2.70;;;;;;;20.64;53.69;99496.02;105765;1258;72435;-72
2023/07/10 18:36:25;;;;;;;2.60;2.40;;;;;;;20.59;53.67;99495.98;105708;1253;60665;-72
2023/07/10 18:38:52;;;;;;;4.90;2.70;;;;;;;20.54;53.72;99493.86;105992;1253;60039;-74
2023/07/10 18:41:29;;;;;;;2.90;2.70;;;;;;;20.50;53.73;99492.63;107171;1253;74084;-73
2023/07/10 18:44:00;;;;;;;4.10;2.60;;;;;;;20.46;53.82;99494.70;108732;1261;69060;-73
2023/07/10 18:46:28;;;;;;;2.80;2.20;;;;;;;20.43;54.04;99494.96;106236;1260;71535;-73
2023/07/10 18:48:56;;;;;;;4.20;2.50;;;;;;;20.38;54.11;99488.45;105868;1258;59226;-70
2023/07/10 18:51:29;;;;;;;4.40;2.30;;;;;;;20.34;54.17;99491.83;105699;1258;60339;-71
2023/07/10 18:54:01;;;;;;;;;;;;;;;20.30;54.24;99488.77;105853;1253;71615;-72
2023/07/10 18:56:29;;;;;;;3.10;2.50;;;;;;;20.25;54.41;99486.98;105635;1253;70188;-71
2023/07/10 18:58:56;;;;;;;3.50;2.60;;;;;;;20.19;54.52;99483.36;105799;1254;72919;-71
2023/07/10 19:01:24;;;;;;;3.00;2.50;;;;;;;20.14;54.77;99482.89;105762;1254;60354;-72
2023/07/10 19:03:52;;;;;;;4.60;2.50;;;;;;;20.09;54.88;99487.03;105378;1254;60300;-73
2023/07/10 19:06:24;;;;;;;2.80;2.40;;;;;;;20.03;54.92;99490.64;105248;1253;74765;-72
2023/07/10 19:08:52;;;;;;;2.60;2.40;;;;;;;19.98;55.17;99489.87;105800;1254;72702;-73
2023/07/10 19:11:20;;;;;;;3.20;2.10;;;;;;;19.93;55.39;99490.30;106048;1258;71903;-72
2023/07/10 19:13:48;;;;;;;3.30;2.90;;;;;;;19.87;55.49;99486.94;108622;1254;60241;-73
2023/07/10 19:16:26;;;;;;;5.60;2.70;;;;;;;19.85;56.03;99490.39;106861;1260;61105;-73
2023/07/10 19:18:56;;;;;;;4.50;2.10;;;;;;;19.80;56.50;99492.01;105742;1254;73960;-72
2023/07/10 19:21:23;;;;;;;2.70;2.40;;;;;;;19.72;56.66;99494.19;105548;1254;70389;-73
2023/07/10 19:23:50;;;;;;;2.80;2.40;;;;;;;19.65;56.96;99493.94;105328;1256;71674;-73
2023/07/10 19:26:19;;;;;;;6.30;2.80;;;;;;;19.59;57.12;99494.66;105446;1253;60634;-71
2023/07/10 19:28:47;;;;;;;4.80;2.40;;;;;;;19.55;56.99;99498.17;105374;1260;60342;-72
2023/07/10 19:31:17;;;;;;;3.80;2.60;;;;;;;19.51;57.20;99501.05;105815;1258;73917;-72
2023/07/10 19:33:46;;;;;;;3.80;2.40;;;;;;;19.48;57.11;99498.59;106039;1253;70495;-72
2023/07/10 19:36:25;;;;;;;3.20;2.60;;;;;;;19.43;57.10;99501.39;105886;1254;73007;-72
2023/07/10 19:38:53;;;;;;;2.80;2.20;;;;;;;19.38;56.99;99495.72;105395;1253;60534;-73
2023/07/10 19:41:21;;;;;;;4.70;3.00;;;;;;;19.34;57.07;99501.75;105469;1258;60511;-70
2023/07/10 19:43:49;;;;;;;3.00;2.40;;;;;;;19.31;57.11;99502.89;108369;1253;73878;-74
2023/07/10 19:46:19;;;;;;;3.20;2.60;;;;;;;19.29;57.23;99503.63;106125;1253;68733;-72
2023/07/10 19:48:47;;;;;;;3.60;2.70;;;;;;;19.28;57.16;99506.85;105495;1255;72718;-72
2023/07/10 19:51:14;;;;;;;2.70;2.40;;;;;;;19.26;57.39;99512.73;105895;1257;59216;-73
2023/07/10 19:53:42;;;;;;;3.40;2.60;;;;;;;19.23;57.49;99509.53;105853;1253;60314;-71
2023/07/10 19:56:27;;;;;;;3.80;2.80;;;;;;;19.21;57.69;99511.63;105801;1257;72843;-72
2023/07/10 19:58:55;;;;;;;4.70;2.90;;;;;;;19.18;57.80;99512.30;105492;1253;70248;-73
2023/07/10 20:01:22;;;;;;;5.10;2.50;;;;;;;19.17;58.00;99515.92;105784;1253;71380;-75
2023/07/10 20:03:51;;;;;;;2.80;2.40;;;;;;;19.15;58.28;99516.70;105858;1254;60463;-74
2023/07/10 20:06:24;;;;;;;3.80;2.60;;;;;;;19.12;58.45;99521.45;105603;1254;60460;-74
2023/07/10 20:08:51;;;;;;;;;;;;;;;19.09;58.75;99522.17;106987;1253;73729;-73
2023/07/10 20:11:19;;;;;;;2.90;2.40;;;;;;;19.05;59.14;99517.52;106425;1258;69104;-75
2023/07/10 20:13:46;;;;;;;3.90;2.90;;;;;;;19.00;59.53;99518.68;108721;1253;72460;-74
2023/07/10 20:16:19;;;;;;;5.50;2.60;;;;;;;18.97;59.95;99516.20;108582;1254;60582;-75
2023/07/10 20:18:47;;;;;;;2.80;2.50;;;;;;;18.94;60.12;99510.70;108504;1253;59070;-74
2023/07/10 20:21:14;;;;;;;3.40;2.50;;;;;;;18.91;60.21;99506.48;109067;1253;72489;-78
2023/07/10 20:23:42;;;;;;;3.50;2.90;;;;;;;18.88;60.35;99500.80;109095;1253;69049;-80
2023/07/10 20:26:14;;;;;;;3.40;2.80;;;;;;;18.85;60.69;99498.11;109125;1253;71356;-79
2023/07/10 20:28:41;;;;;;;3.50;3.20;;;;;;;18.83;61.08;99501.58;108865;1258;60391;-78
2023/07/10 20:31:11;;;;;;;4.60;3.60;;;;;;;18.75;61.31;99499.26;108726;1253;59258;-77
2023/07/10 20:33:40;;;;;;;4.10;2.70;;;;;;;18.69;61.65;99501.98;109006;1253;71592;-78
2023/07/10 20:36:19;;;;;;;3.90;3.50;;;;;;;18.64;62.03;99500.44;107349;1254;70964;-77
2023/07/10 20:38:47;;;;;;;4.70;2.80;;;;;;;18.56;62.22;99499.95;106256;1255;72718;-80
2023/07/10 20:41:16;;;;;;;4.90;2.70;;;;;;;18.51;62.49;99497.70;106013;1253;60448;-76
2023/07/10 20:43:43;;;;;;;3.00;2.50;;;;;;;18.46;62.82;99498.33;107827;1259;60311;-77
2023/07/10 20:46:21;;;;;;;3.50;3.00;;;;;;;18.43;63.12;99497.82;107985;1253;72598;-78
2023/07/10 20:48:49;;;;;;;3.70;2.70;;;;;;;18.39;63.58;99493.66;106173;1255;68878;-74
2023/07/10 20:51:20;;;;;;;4.00;2.70;;;;;;;18.33;64.00;99495.32;105812;1254;71783;-75
2023/07/10 20:53:50;;;;;;;4.90;2.60;;;;;;;18.25;64.33;99498.70;105722;1255;60440;-77
2023/07/10 20:56:23;;;;;;;5.20;3.00;;;;;;;18.19;64.60;99504.98;105737;1258;60432;-79
2023/07/10 20:58:51;;;;;;;5.50;3.10;;;;;;;18.13;65.04;99498.64;105724;1253;72563;-77
2023/07/10 21:01:23;;;;;;;2.50;2.30;;;;;;;18.08;65.24;99500.42;105779;1253;70279;-75
2023/07/10 21:03:52;;;;;;;3.30;2.90;;;;;;;18.03;65.52;99502.45;105648;1253;72463;-73